sensor_id;sensor_type;location;lat;lon;timestamp;temperature;humidity
33825;DHT22;20127;48.962;8.342;2023-05-20T00:02:36;13.20;99.90
33825;DHT22;20127;48.962;8.342;2023-05-20T00:05:38;13.20;99.90
33825;DHT22;20127;48.962;8.342;2023-05-20T00:08:41;13.20;99.90
33825;DHT22;20127;48.962;8.342;2023-05-20T00:11:44;13.20;99.90
33825;DHT22;20127;48.962;8.342;2023-05-20T00:14:46;13.10;99.90
33825;DHT22;20127;48.962;8.342;2023-05-20T00:17:48;13.10;99.90
33825;DHT22;20127;48.962;8.342;2023-05-20T00:20:50;13.20;99.90
33825;DHT22;20127;48.962;8.342;2023-05-20T00:23:54;13.20;99.90
33825;DHT22;20127;48.962;8.342;2023-05-20T00:26:56;13.30;99.90
33825;DHT22;20127;48.962;8.342;2023-05-20T00:29:58;13.30;99.90
33825;DHT22;20127;48.962;8.342;2023-05-20T00:32:59;13.40;99.90
33825;DHT22;20127;48.962;8.342;2023-05-20T00:36:01;13.40;99.90
33825;DHT22;20127;48.962;8.342;2023-05-20T00:39:04;13.40;99.90
33825;DHT22;20127;48.962;8.342;2023-05-20T00:42:06;13.50;99.90
33825;DHT22;20127;48.962;8.342;2023-05-20T00:45:08;13.50;99.90
33825;DHT22;20127;48.962;8.342;2023-05-20T00:48:10;13.50;99.90
33825;DHT22;20127;48.962;8.342;2023-05-20T00:51:13;13.50;99.90
33825;DHT22;20127;48.962;8.342;2023-05-20T00:54:16;13.50;99.90
33825;DHT22;20127;48.962;8.342;2023-05-20T00:57:18;13.60;99.90
33825;DHT22;20127;48.962;8.342;2023-05-20T01:00:20;13.60;99.90
33825;DHT22;20127;48.962;8.342;2023-05-20T01:03:22;13.60;99.90
33825;DHT22;20127;48.962;8.342;2023-05-20T01:06:24;13.70;99.90
33825;DHT22;20127;48.962;8.342;2023-05-20T01:09:29;13.60;99.90
33825;DHT22;20127;48.962;8.342;2023-05-20T01:12:36;13.70;99.90
33825;DHT22;20127;48.962;8.342;2023-05-20T01:15:39;13.70;99.90
33825;DHT22;20127;48.962;8.342;2023-05-20T01:18:42;13.70;99.90
33825;DHT22;20127;48.962;8.342;2023-05-20T01:21:45;13.70;99.90
33825;DHT22;20127;48.962;8.342;2023-05-20T01:24:48;13.70;99.90
33825;DHT22;20127;48.962;8.342;2023-05-20T01:27:54;13.70;99.90
33825;DHT22;20127;48.962;8.342;2023-05-20T01:30:59;13.70;99.90
33825;DHT22;20127;48.962;8.342;2023-05-20T01:34:02;13.60;99.90
33825;DHT22;20127;48.962;8.342;2023-05-20T01:37:05;13.60;99.90
33825;DHT22;20127;48.962;8.342;2023-05-20T01:40:11;13.50;99.90
33825;DHT22;20127;48.962;8.342;2023-05-20T01:43:15;13.50;99.90
33825;DHT22;20127;48.962;8.342;2023-05-20T01:46:17;13.50;99.90
33825;DHT22;20127;48.962;8.342;2023-05-20T01:49:19;13.50;99.90
33825;DHT22;20127;48.962;8.342;2023-05-20T01:52:21;13.50;99.90
33825;DHT22;20127;48.962;8.342;2023-05-20T01:55:24;13.50;99.90
33825;DHT22;20127;48.962;8.342;2023-05-20T01:58:26;13.60;99.90
33825;DHT22;20127;48.962;8.342;2023-05-20T02:01:28;13.60;99.90
33825;DHT22;20127;48.962;8.342;2023-05-20T02:04:29;13.60;99.90
33825;DHT22;20127;48.962;8.342;2023-05-20T02:07:31;13.60;99.90
33825;DHT22;20127;48.962;8.342;2023-05-20T02:10:34;13.60;99.90
33825;DHT22;20127;48.962;8.342;2023-05-20T02:13:36;13.60;99.90
33825;DHT22;20127;48.962;8.342;2023-05-20T02:16:37;13.50;99.90
33825;DHT22;20127;48.962;8.342;2023-05-20T02:19:39;13.50;99.90
33825;DHT22;20127;48.962;8.342;2023-05-20T02:22:40;13.50;99.90
33825;DHT22;20127;48.962;8.342;2023-05-20T02:25:44;13.50;99.90
33825;DHT22;20127;48.962;8.342;2023-05-20T02:28:46;13.50;99.90
33825;DHT22;20127;48.962;8.342;2023-05-20T02:31:49;13.50;99.90
33825;DHT22;20127;48.962;8.342;2023-05-20T02:34:51;13.40;99.90
33825;DHT22;20127;48.962;8.342;2023-05-20T02:37:53;13.40;99.90
33825;DHT22;20127;48.962;8.342;2023-05-20T02:40:56;13.40;99.90
33825;DHT22;20127;48.962;8.342;2023-05-20T02:43:59;13.40;99.90
33825;DHT22;20127;48.962;8.342;2023-05-20T02:47:00;13.40;99.90
33825;DHT22;20127;48.962;8.342;2023-05-20T02:50:03;13.40;99.90
33825;DHT22;20127;48.962;8.342;2023-05-20T02:53:04;13.40;99.90
33825;DHT22;20127;48.962;8.342;2023-05-20T02:56:08;13.40;99.90
33825;DHT22;20127;48.962;8.342;2023-05-20T02:59:10;13.40;99.90
33825;DHT22;20127;48.962;8.342;2023-05-20T03:02:11;13.40;99.90
33825;DHT22;20127;48.962;8.342;2023-05-20T03:05:13;13.40;99.90
33825;DHT22;20127;48.962;8.342;2023-05-20T03:08:15;13.40;99.90
33825;DHT22;20127;48.962;8.342;2023-05-20T03:11:18;13.40;99.90
33825;DHT22;20127;48.962;8.342;2023-05-20T03:14:21;13.30;99.90
33825;DHT22;20127;48.962;8.342;2023-05-20T03:17:22;13.20;99.90
33825;DHT22;20127;48.962;8.342;2023-05-20T03:20:24;13.10;99.90
33825;DHT22;20127;48.962;8.342;2023-05-20T03:23:26;13.10;99.90
33825;DHT22;20127;48.962;8.342;2023-05-20T03:26:29;13.00;99.90
33825;DHT22;20127;48.962;8.342;2023-05-20T03:29:32;13.00;99.90
33825;DHT22;20127;48.962;8.342;2023-05-20T03:32:34;13.00;99.90
33825;DHT22;20127;48.962;8.342;2023-05-20T03:35:36;13.00;99.90
33825;DHT22;20127;48.962;8.342;2023-05-20T03:38:38;13.00;99.90
33825;DHT22;20127;48.962;8.342;2023-05-20T03:41:41;13.10;99.90
33825;DHT22;20127;48.962;8.342;2023-05-20T03:44:42;13.00;99.90
33825;DHT22;20127;48.962;8.342;2023-05-20T03:47:44;13.10;99.90
33825;DHT22;20127;48.962;8.342;2023-05-20T03:50:46;13.00;99.90
33825;DHT22;20127;48.962;8.342;2023-05-20T03:53:47;13.00;99.90
33825;DHT22;20127;48.962;8.342;2023-05-20T03:56:50;13.00;99.90
33825;DHT22;20127;48.962;8.342;2023-05-20T03:59:52;13.00;99.90
33825;DHT22;20127;48.962;8.342;2023-05-20T04:02:54;13.00;99.90
33825;DHT22;20127;48.962;8.342;2023-05-20T04:05:55;13.00;99.90
33825;DHT22;20127;48.962;8.342;2023-05-20T04:08:57;13.00;99.90
33825;DHT22;20127;48.962;8.342;2023-05-20T04:12:00;13.00;99.90
33825;DHT22;20127;48.962;8.342;2023-05-20T04:15:03;13.00;99.90
33825;DHT22;20127;48.962;8.342;2023-05-20T04:18:05;13.10;99.90
33825;DHT22;20127;48.962;8.342;2023-05-20T04:21:06;13.10;99.90
33825;DHT22;20127;48.962;8.342;2023-05-20T04:24:08;13.10;99.90
33825;DHT22;20127;48.962;8.342;2023-05-20T04:27:11;13.10;99.90
33825;DHT22;20127;48.962;8.342;2023-05-20T04:30:13;13.10;99.90
33825;DHT22;20127;48.962;8.342;2023-05-20T04:33:16;13.20;99.90
33825;DHT22;20127;48.962;8.342;2023-05-20T04:36:17;13.20;99.90
33825;DHT22;20127;48.962;8.342;2023-05-20T04:39:19;13.30;99.90
33825;DHT22;20127;48.962;8.342;2023-05-20T04:42:23;13.30;99.90
33825;DHT22;20127;48.962;8.342;2023-05-20T04:45:25;13.40;99.90
33825;DHT22;20127;48.962;8.342;2023-05-20T04:48:26;13.40;99.90
33825;DHT22;20127;48.962;8.342;2023-05-20T04:51:28;13.50;99.90
33825;DHT22;20127;48.962;8.342;2023-05-20T04:54:30;13.60;99.90
33825;DHT22;20127;48.962;8.342;2023-05-20T04:57:34;13.70;99.90
33825;DHT22;20127;48.962;8.342;2023-05-20T05:00:38;13.80;99.90
33825;DHT22;20127;48.962;8.342;2023-05-20T05:03:39;13.90;99.90
33825;DHT22;20127;48.962;8.342;2023-05-20T05:06:42;14.00;99.90
33825;DHT22;20127;48.962;8.342;2023-05-20T05:09:43;14.10;99.90
33825;DHT22;20127;48.962;8.342;2023-05-20T05:12:46;14.20;99.90
33825;DHT22;20127;48.962;8.342;2023-05-20T05:15:56;14.20;99.90
33825;DHT22;20127;48.962;8.342;2023-05-20T05:18:58;14.30;99.90
33825;DHT22;20127;48.962;8.342;2023-05-20T05:21:59;14.40;99.90
33825;DHT22;20127;48.962;8.342;2023-05-20T05:25:01;14.60;99.90
33825;DHT22;20127;48.962;8.342;2023-05-20T05:28:04;14.80;99.90
33825;DHT22;20127;48.962;8.342;2023-05-20T05:31:06;15.00;99.90
33825;DHT22;20127;48.962;8.342;2023-05-20T05:34:09;15.10;99.90
33825;DHT22;20127;48.962;8.342;2023-05-20T05:37:11;15.30;99.90
33825;DHT22;20127;48.962;8.342;2023-05-20T05:40:13;15.40;99.90
33825;DHT22;20127;48.962;8.342;2023-05-20T05:43:16;15.60;99.90
33825;DHT22;20127;48.962;8.342;2023-05-20T05:46:18;15.70;99.90
33825;DHT22;20127;48.962;8.342;2023-05-20T05:49:19;15.90;99.60
33825;DHT22;20127;48.962;8.342;2023-05-20T05:52:21;15.90;99.10
33825;DHT22;20127;48.962;8.342;2023-05-20T05:55:23;15.80;98.80
33825;DHT22;20127;48.962;8.342;2023-05-20T05:58:26;15.80;98.60
33825;DHT22;20127;48.962;8.342;2023-05-20T06:01:28;15.70;98.70
33825;DHT22;20127;48.962;8.342;2023-05-20T06:04:29;15.70;98.70
33825;DHT22;20127;48.962;8.342;2023-05-20T06:07:31;15.80;98.90
33825;DHT22;20127;48.962;8.342;2023-05-20T06:10:33;16.00;99.10
33825;DHT22;20127;48.962;8.342;2023-05-20T06:13:36;16.30;98.50
33825;DHT22;20127;48.962;8.342;2023-05-20T06:16:38;16.30;97.90
33825;DHT22;20127;48.962;8.342;2023-05-20T06:19:40;16.30;97.70
33825;DHT22;20127;48.962;8.342;2023-05-20T06:22:42;16.30;97.60
33825;DHT22;20127;48.962;8.342;2023-05-20T06:25:43;16.30;97.50
33825;DHT22;20127;48.962;8.342;2023-05-20T06:28:46;16.30;97.60
33825;DHT22;20127;48.962;8.342;2023-05-20T06:31:48;16.40;97.90
33825;DHT22;20127;48.962;8.342;2023-05-20T06:34:49;16.90;98.00
33825;DHT22;20127;48.962;8.342;2023-05-20T06:37:51;17.40;97.40
33825;DHT22;20127;48.962;8.342;2023-05-20T06:40:54;17.80;96.90
33825;DHT22;20127;48.962;8.342;2023-05-20T06:43:57;18.60;96.60
33825;DHT22;20127;48.962;8.342;2023-05-20T06:46:59;19.40;95.40
33825;DHT22;20127;48.962;8.342;2023-05-20T06:50:01;19.80;94.40
33825;DHT22;20127;48.962;8.342;2023-05-20T06:53:02;20.10;93.40
33825;DHT22;20127;48.962;8.342;2023-05-20T06:56:05;20.10;92.80
33825;DHT22;20127;48.962;8.342;2023-05-20T06:59:08;20.20;92.40
33825;DHT22;20127;48.962;8.342;2023-05-20T07:02:10;20.60;92.10
33825;DHT22;20127;48.962;8.342;2023-05-20T07:05:12;21.40;91.30
33825;DHT22;20127;48.962;8.342;2023-05-20T07:08:14;22.30;90.30
33825;DHT22;20127;48.962;8.342;2023-05-20T07:11:15;23.10;87.80
33825;DHT22;20127;48.962;8.342;2023-05-20T07:14:18;23.90;85.10
33825;DHT22;20127;48.962;8.342;2023-05-20T07:17:20;24.60;82.10
33825;DHT22;20127;48.962;8.342;2023-05-20T07:20:22;25.40;79.00
33825;DHT22;20127;48.962;8.342;2023-05-20T07:23:24;26.00;76.20
33825;DHT22;20127;48.962;8.342;2023-05-20T07:26:26;26.60;74.00
33825;DHT22;20127;48.962;8.342;2023-05-20T07:29:29;27.20;71.70
33825;DHT22;20127;48.962;8.342;2023-05-20T07:32:30;27.60;69.10
33825;DHT22;20127;48.962;8.342;2023-05-20T07:35:32;27.50;67.50
33825;DHT22;20127;48.962;8.342;2023-05-20T07:38:35;27.00;66.30
33825;DHT22;20127;48.962;8.342;2023-05-20T07:41:37;26.30;65.80
33825;DHT22;20127;48.962;8.342;2023-05-20T07:44:40;25.30;66.70
33825;DHT22;20127;48.962;8.342;2023-05-20T07:47:42;24.60;67.60
33825;DHT22;20127;48.962;8.342;2023-05-20T07:50:44;23.90;68.90
33825;DHT22;20127;48.962;8.342;2023-05-20T07:53:46;23.40;69.60
33825;DHT22;20127;48.962;8.342;2023-05-20T07:56:47;23.00;70.90
33825;DHT22;20127;48.962;8.342;2023-05-20T07:59:51;22.80;71.80
33825;DHT22;20127;48.962;8.342;2023-05-20T08:02:52;22.60;72.30
33825;DHT22;20127;48.962;8.342;2023-05-20T08:05:54;22.60;72.90
33825;DHT22;20127;48.962;8.342;2023-05-20T08:08:56;22.70;73.30
33825;DHT22;20127;48.962;8.342;2023-05-20T08:11:57;23.20;74.30
33825;DHT22;20127;48.962;8.342;2023-05-20T08:15:00;24.20;72.90
33825;DHT22;20127;48.962;8.342;2023-05-20T08:18:02;25.00;71.50
33825;DHT22;20127;48.962;8.342;2023-05-20T08:21:05;25.70;70.70
33825;DHT22;20127;48.962;8.342;2023-05-20T08:24:07;26.10;68.80
33825;DHT22;20127;48.962;8.342;2023-05-20T08:27:09;25.90;68.20
33825;DHT22;20127;48.962;8.342;2023-05-20T08:30:12;26.20;68.20
33825;DHT22;20127;48.962;8.342;2023-05-20T08:33:14;26.10;67.00
33825;DHT22;20127;48.962;8.342;2023-05-20T08:36:15;26.30;67.60
33825;DHT22;20127;48.962;8.342;2023-05-20T08:39:18;27.10;66.20
33825;DHT22;20127;48.962;8.342;2023-05-20T08:42:21;27.30;64.00
33825;DHT22;20127;48.962;8.342;2023-05-20T08:45:25;27.20;64.00
33825;DHT22;20127;48.962;8.342;2023-05-20T08:48:29;27.50;63.60
33825;DHT22;20127;48.962;8.342;2023-05-20T08:51:32;27.40;62.10
33825;DHT22;20127;48.962;8.342;2023-05-20T08:54:42;27.40;62.70
33825;DHT22;20127;48.962;8.342;2023-05-20T08:57:45;27.40;61.20
33825;DHT22;20127;48.962;8.342;2023-05-20T09:00:48;27.00;62.00
33825;DHT22;20127;48.962;8.342;2023-05-20T09:03:50;26.60;62.00
33825;DHT22;20127;48.962;8.342;2023-05-20T09:06:52;26.10;62.20
33825;DHT22;20127;48.962;8.342;2023-05-20T09:09:55;25.10;63.20
33825;DHT22;20127;48.962;8.342;2023-05-20T09:12:59;24.20;65.40
33825;DHT22;20127;48.962;8.342;2023-05-20T09:16:02;23.90;66.50
33825;DHT22;20127;48.962;8.342;2023-05-20T09:19:05;23.70;66.90
33825;DHT22;20127;48.962;8.342;2023-05-20T09:22:09;23.50;67.70
33825;DHT22;20127;48.962;8.342;2023-05-20T09:25:10;23.40;68.10
33825;DHT22;20127;48.962;8.342;2023-05-20T09:28:13;23.20;68.50
33825;DHT22;20127;48.962;8.342;2023-05-20T09:31:17;23.00;68.80
33825;DHT22;20127;48.962;8.342;2023-05-20T09:34:19;22.70;69.50
33825;DHT22;20127;48.962;8.342;2023-05-20T09:37:21;22.70;70.60
33825;DHT22;20127;48.962;8.342;2023-05-20T09:40:25;23.50;71.40
33825;DHT22;20127;48.962;8.342;2023-05-20T09:43:27;24.30;68.90
33825;DHT22;20127;48.962;8.342;2023-05-20T09:46:30;24.30;67.60
33825;DHT22;20127;48.962;8.342;2023-05-20T09:49:34;24.60;68.20
33825;DHT22;20127;48.962;8.342;2023-05-20T09:52:37;25.00;67.10
33825;DHT22;20127;48.962;8.342;2023-05-20T09:55:39;25.50;65.70
33825;DHT22;20127;48.962;8.342;2023-05-20T09:58:43;26.00;66.20
33825;DHT22;20127;48.962;8.342;2023-05-20T10:01:47;27.00;65.00
33825;DHT22;20127;48.962;8.342;2023-05-20T10:04:50;27.00;63.20
33825;DHT22;20127;48.962;8.342;2023-05-20T10:11:36;25.70;62.40
33825;DHT22;20127;48.962;8.342;2023-05-20T10:14:48;24.80;64.00
33825;DHT22;20127;48.962;8.342;2023-05-20T10:17:59;24.40;65.00
33825;DHT22;20127;48.962;8.342;2023-05-20T10:21:02;24.40;65.70
33825;DHT22;20127;48.962;8.342;2023-05-20T10:24:05;24.80;64.90
33825;DHT22;20127;48.962;8.342;2023-05-20T10:27:08;25.00;64.00
33825;DHT22;20127;48.962;8.342;2023-05-20T10:30:17;25.20;63.90
33825;DHT22;20127;48.962;8.342;2023-05-20T10:33:20;25.20;63.40
33825;DHT22;20127;48.962;8.342;2023-05-20T10:36:24;25.10;63.50
33825;DHT22;20127;48.962;8.342;2023-05-20T10:39:27;25.00;64.00
33825;DHT22;20127;48.962;8.342;2023-05-20T10:42:29;25.30;64.40
33825;DHT22;20127;48.962;8.342;2023-05-20T10:45:31;25.40;63.70
33825;DHT22;20127;48.962;8.342;2023-05-20T10:48:41;25.70;63.70
33825;DHT22;20127;48.962;8.342;2023-05-20T10:51:44;25.70;63.20
33825;DHT22;20127;48.962;8.342;2023-05-20T10:54:54;25.60;62.80
33825;DHT22;20127;48.962;8.342;2023-05-20T10:57:56;25.90;62.60
33825;DHT22;20127;48.962;8.342;2023-05-20T11:00:58;26.20;61.70
33825;DHT22;20127;48.962;8.342;2023-05-20T11:04:01;26.20;61.30
33825;DHT22;20127;48.962;8.342;2023-05-20T11:07:04;26.10;61.30
33825;DHT22;20127;48.962;8.342;2023-05-20T11:10:08;25.90;62.10
33825;DHT22;20127;48.962;8.342;2023-05-20T11:13:11;26.00;61.70
33825;DHT22;20127;48.962;8.342;2023-05-20T11:16:13;25.90;61.80
33825;DHT22;20127;48.962;8.342;2023-05-20T11:19:16;25.80;61.80
33825;DHT22;20127;48.962;8.342;2023-05-20T11:22:18;26.10;62.30
33825;DHT22;20127;48.962;8.342;2023-05-20T11:25:20;26.70;61.50
33825;DHT22;20127;48.962;8.342;2023-05-20T11:28:23;27.00;61.10
33825;DHT22;20127;48.962;8.342;2023-05-20T11:31:25;27.10;61.10
33825;DHT22;20127;48.962;8.342;2023-05-20T11:34:34;27.10;60.30
33825;DHT22;20127;48.962;8.342;2023-05-20T11:37:36;26.90;60.40
33825;DHT22;20127;48.962;8.342;2023-05-20T11:40:42;27.10;59.60
33825;DHT22;20127;48.962;8.342;2023-05-20T11:43:45;26.80;60.10
33825;DHT22;20127;48.962;8.342;2023-05-20T11:46:47;26.60;59.80
33825;DHT22;20127;48.962;8.342;2023-05-20T11:49:50;26.40;59.80
33825;DHT22;20127;48.962;8.342;2023-05-20T11:52:56;26.10;60.20
33825;DHT22;20127;48.962;8.342;2023-05-20T11:55:59;25.80;60.40
33825;DHT22;20127;48.962;8.342;2023-05-20T11:59:02;25.20;61.50
33825;DHT22;20127;48.962;8.342;2023-05-20T12:02:05;25.00;62.20
33825;DHT22;20127;48.962;8.342;2023-05-20T12:05:08;25.50;62.50
33825;DHT22;20127;48.962;8.342;2023-05-20T12:08:11;25.90;61.70
33825;DHT22;20127;48.962;8.342;2023-05-20T12:11:12;26.00;61.30
33825;DHT22;20127;48.962;8.342;2023-05-20T12:14:14;25.90;61.50
33825;DHT22;20127;48.962;8.342;2023-05-20T12:17:16;26.00;61.60
33825;DHT22;20127;48.962;8.342;2023-05-20T12:20:21;26.30;61.90
33825;DHT22;20127;48.962;8.342;2023-05-20T12:23:23;26.70;61.60
33825;DHT22;20127;48.962;8.342;2023-05-20T12:26:27;27.00;60.80
33825;DHT22;20127;48.962;8.342;2023-05-20T12:29:29;26.90;60.10
33825;DHT22;20127;48.962;8.342;2023-05-20T12:32:30;26.90;60.00
33825;DHT22;20127;48.962;8.342;2023-05-20T12:35:37;26.80;60.40
33825;DHT22;20127;48.962;8.342;2023-05-20T12:38:39;26.70;60.60
33825;DHT22;20127;48.962;8.342;2023-05-20T12:41:41;26.80;60.30
33825;DHT22;20127;48.962;8.342;2023-05-20T12:44:43;26.50;60.30
33825;DHT22;20127;48.962;8.342;2023-05-20T12:47:44;26.30;60.60
33825;DHT22;20127;48.962;8.342;2023-05-20T12:50:49;26.00;60.80
33825;DHT22;20127;48.962;8.342;2023-05-20T12:53:50;25.70;61.60
33825;DHT22;20127;48.962;8.342;2023-05-20T12:56:52;25.50;62.00
33825;DHT22;20127;48.962;8.342;2023-05-20T12:59:54;25.60;61.90
33825;DHT22;20127;48.962;8.342;2023-05-20T13:02:56;25.60;61.60
33825;DHT22;20127;48.962;8.342;2023-05-20T13:05:59;25.60;62.10
33825;DHT22;20127;48.962;8.342;2023-05-20T13:09:00;25.70;62.10
33825;DHT22;20127;48.962;8.342;2023-05-20T13:12:03;25.70;61.70
33825;DHT22;20127;48.962;8.342;2023-05-20T13:15:06;25.50;61.90
33825;DHT22;20127;48.962;8.342;2023-05-20T13:18:08;25.60;62.40
33825;DHT22;20127;48.962;8.342;2023-05-20T13:21:11;25.90;62.20
33825;DHT22;20127;48.962;8.342;2023-05-20T13:24:12;26.20;62.20
33825;DHT22;20127;48.962;8.342;2023-05-20T13:27:14;26.50;61.90
33825;DHT22;20127;48.962;8.342;2023-05-20T13:30:16;26.50;61.20
33825;DHT22;20127;48.962;8.342;2023-05-20T13:33:18;26.50;61.20
33825;DHT22;20127;48.962;8.342;2023-05-20T13:36:21;26.50;61.30
33825;DHT22;20127;48.962;8.342;2023-05-20T13:39:23;26.30;61.30
33825;DHT22;20127;48.962;8.342;2023-05-20T13:42:25;26.30;61.30
33825;DHT22;20127;48.962;8.342;2023-05-20T13:45:26;26.30;61.50
33825;DHT22;20127;48.962;8.342;2023-05-20T13:48:29;26.40;61.40
33825;DHT22;20127;48.962;8.342;2023-05-20T13:51:33;26.50;61.30
33825;DHT22;20127;48.962;8.342;2023-05-20T13:54:35;26.60;61.30
33825;DHT22;20127;48.962;8.342;2023-05-20T13:57:37;26.60;61.00
33825;DHT22;20127;48.962;8.342;2023-05-20T14:00:38;26.50;60.70
33825;DHT22;20127;48.962;8.342;2023-05-20T14:03:41;26.40;61.20
33825;DHT22;20127;48.962;8.342;2023-05-20T14:06:44;26.30;61.10
33825;DHT22;20127;48.962;8.342;2023-05-20T14:09:45;26.10;60.90
33825;DHT22;20127;48.962;8.342;2023-05-20T14:12:47;25.90;61.10
33825;DHT22;20127;48.962;8.342;2023-05-20T14:15:49;25.80;61.20
33825;DHT22;20127;48.962;8.342;2023-05-20T14:18:50;25.80;61.20
33825;DHT22;20127;48.962;8.342;2023-05-20T14:21:53;25.60;61.40
33825;DHT22;20127;48.962;8.342;2023-05-20T14:24:55;25.50;61.90
33825;DHT22;20127;48.962;8.342;2023-05-20T14:27:57;25.30;62.10
33825;DHT22;20127;48.962;8.342;2023-05-20T14:30:58;25.20;62.30
33825;DHT22;20127;48.962;8.342;2023-05-20T14:34:00;25.20;62.70
33825;DHT22;20127;48.962;8.342;2023-05-20T14:37:03;25.30;63.00
33825;DHT22;20127;48.962;8.342;2023-05-20T14:40:09;25.20;63.20
33825;DHT22;20127;48.962;8.342;2023-05-20T14:43:11;25.20;63.40
33825;DHT22;20127;48.962;8.342;2023-05-20T14:46:13;25.20;63.20
33825;DHT22;20127;48.962;8.342;2023-05-20T14:49:15;25.30;63.40
33825;DHT22;20127;48.962;8.342;2023-05-20T14:52:18;25.50;63.40
33825;DHT22;20127;48.962;8.342;2023-05-20T14:55:19;25.70;63.50
33825;DHT22;20127;48.962;8.342;2023-05-20T14:58:21;25.90;63.10
33825;DHT22;20127;48.962;8.342;2023-05-20T15:01:23;25.90;62.90
33825;DHT22;20127;48.962;8.342;2023-05-20T15:04:25;25.90;63.00
33825;DHT22;20127;48.962;8.342;2023-05-20T15:07:28;25.90;63.40
33825;DHT22;20127;48.962;8.342;2023-05-20T15:10:30;26.10;62.90
33825;DHT22;20127;48.962;8.342;2023-05-20T15:13:31;26.20;63.10
33825;DHT22;20127;48.962;8.342;2023-05-20T15:16:33;26.50;62.80
33825;DHT22;20127;48.962;8.342;2023-05-20T15:19:35;26.70;62.30
33825;DHT22;20127;48.962;8.342;2023-05-20T15:22:38;26.80;62.10
33825;DHT22;20127;48.962;8.342;2023-05-20T15:25:40;26.90;61.70
33825;DHT22;20127;48.962;8.342;2023-05-20T15:28:42;26.90;61.60
33825;DHT22;20127;48.962;8.342;2023-05-20T15:31:44;26.90;61.20
33825;DHT22;20127;48.962;8.342;2023-05-20T15:34:45;26.90;61.50
33825;DHT22;20127;48.962;8.342;2023-05-20T15:37:48;26.90;61.20
33825;DHT22;20127;48.962;8.342;2023-05-20T15:40:50;26.70;61.20
33825;DHT22;20127;48.962;8.342;2023-05-20T15:43:52;26.70;61.30
33825;DHT22;20127;48.962;8.342;2023-05-20T15:46:54;26.60;61.00
33825;DHT22;20127;48.962;8.342;2023-05-20T15:49:55;26.30;61.30
33825;DHT22;20127;48.962;8.342;2023-05-20T15:52:59;26.00;61.60
33825;DHT22;20127;48.962;8.342;2023-05-20T15:56:00;26.00;61.80
33825;DHT22;20127;48.962;8.342;2023-05-20T15:59:02;25.90;62.10
33825;DHT22;20127;48.962;8.342;2023-05-20T16:02:04;25.90;62.40
33825;DHT22;20127;48.962;8.342;2023-05-20T16:05:06;26.00;62.70
33825;DHT22;20127;48.962;8.342;2023-05-20T16:08:09;26.00;62.90
33825;DHT22;20127;48.962;8.342;2023-05-20T16:11:11;25.90;62.40
33825;DHT22;20127;48.962;8.342;2023-05-20T16:14:13;25.80;62.40
33825;DHT22;20127;48.962;8.342;2023-05-20T16:17:14;25.70;62.50
33825;DHT22;20127;48.962;8.342;2023-05-20T16:20:18;25.70;62.70
33825;DHT22;20127;48.962;8.342;2023-05-20T16:23:21;25.80;62.90
33825;DHT22;20127;48.962;8.342;2023-05-20T16:26:23;25.90;62.70
33825;DHT22;20127;48.962;8.342;2023-05-20T16:29:25;26.00;62.60
33825;DHT22;20127;48.962;8.342;2023-05-20T16:32:27;26.10;62.90
33825;DHT22;20127;48.962;8.342;2023-05-20T16:35:28;26.00;62.60
33825;DHT22;20127;48.962;8.342;2023-05-20T16:38:31;25.90;62.90
33825;DHT22;20127;48.962;8.342;2023-05-20T16:41:34;25.80;63.20
33825;DHT22;20127;48.962;8.342;2023-05-20T16:44:35;25.60;63.40
33825;DHT22;20127;48.962;8.342;2023-05-20T16:47:38;25.40;63.60
33825;DHT22;20127;48.962;8.342;2023-05-20T16:50:40;25.30;63.90
33825;DHT22;20127;48.962;8.342;2023-05-20T16:53:43;25.10;64.20
33825;DHT22;20127;48.962;8.342;2023-05-20T16:56:45;24.90;64.60
33825;DHT22;20127;48.962;8.342;2023-05-20T16:59:47;24.70;64.90
33825;DHT22;20127;48.962;8.342;2023-05-20T17:02:48;24.50;65.30
33825;DHT22;20127;48.962;8.342;2023-05-20T17:05:50;24.40;65.70
33825;DHT22;20127;48.962;8.342;2023-05-20T17:08:53;24.20;66.00
33825;DHT22;20127;48.962;8.342;2023-05-20T17:11:55;24.20;66.50
33825;DHT22;20127;48.962;8.342;2023-05-20T17:14:57;24.10;66.60
33825;DHT22;20127;48.962;8.342;2023-05-20T17:17:59;23.90;66.70
33825;DHT22;20127;48.962;8.342;2023-05-20T17:21:00;23.80;66.90
33825;DHT22;20127;48.962;8.342;2023-05-20T17:24:04;23.70;67.20
33825;DHT22;20127;48.962;8.342;2023-05-20T17:27:06;23.60;67.50
33825;DHT22;20127;48.962;8.342;2023-05-20T17:30:08;23.40;67.70
33825;DHT22;20127;48.962;8.342;2023-05-20T17:33:10;23.40;68.10
33825;DHT22;20127;48.962;8.342;2023-05-20T17:36:12;23.30;68.30
33825;DHT22;20127;48.962;8.342;2023-05-20T17:39:16;23.20;68.60
33825;DHT22;20127;48.962;8.342;2023-05-20T17:42:18;23.10;68.80
33825;DHT22;20127;48.962;8.342;2023-05-20T17:45:20;23.00;69.10
33825;DHT22;20127;48.962;8.342;2023-05-20T17:48:22;22.90;69.50
33825;DHT22;20127;48.962;8.342;2023-05-20T17:51:23;22.80;69.80
33825;DHT22;20127;48.962;8.342;2023-05-20T17:54:26;22.70;70.10
33825;DHT22;20127;48.962;8.342;2023-05-20T17:57:28;22.60;70.60
33825;DHT22;20127;48.962;8.342;2023-05-20T18:00:30;22.50;71.00
33825;DHT22;20127;48.962;8.342;2023-05-20T18:03:33;22.50;71.50
33825;DHT22;20127;48.962;8.342;2023-05-20T18:06:35;22.40;71.70
33825;DHT22;20127;48.962;8.342;2023-05-20T18:09:38;22.20;72.10
33825;DHT22;20127;48.962;8.342;2023-05-20T18:12:40;22.10;72.30
33825;DHT22;20127;48.962;8.342;2023-05-20T18:15:42;22.00;72.60
33825;DHT22;20127;48.962;8.342;2023-05-20T18:18:44;21.90;72.90
33825;DHT22;20127;48.962;8.342;2023-05-20T18:21:45;21.80;73.30
33825;DHT22;20127;48.962;8.342;2023-05-20T18:24:48;21.80;73.60
33825;DHT22;20127;48.962;8.342;2023-05-20T18:27:50;21.70;73.90
33825;DHT22;20127;48.962;8.342;2023-05-20T18:30:52;21.60;74.20
33825;DHT22;20127;48.962;8.342;2023-05-20T18:33:55;21.60;74.60
33825;DHT22;20127;48.962;8.342;2023-05-20T18:36:56;21.50;75.00
33825;DHT22;20127;48.962;8.342;2023-05-20T18:39:59;21.40;75.40
33825;DHT22;20127;48.962;8.342;2023-05-20T18:43:01;21.30;76.00
33825;DHT22;20127;48.962;8.342;2023-05-20T18:46:03;21.20;76.40
33825;DHT22;20127;48.962;8.342;2023-05-20T18:49:05;21.20;76.90
33825;DHT22;20127;48.962;8.342;2023-05-20T18:52:06;21.10;77.30
33825;DHT22;20127;48.962;8.342;2023-05-20T18:55:09;21.00;77.70
33825;DHT22;20127;48.962;8.342;2023-05-20T18:58:12;20.90;78.20
33825;DHT22;20127;48.962;8.342;2023-05-20T19:01:14;20.80;78.50
33825;DHT22;20127;48.962;8.342;2023-05-20T19:04:15;20.70;78.80
33825;DHT22;20127;48.962;8.342;2023-05-20T19:07:17;20.70;79.30
33825;DHT22;20127;48.962;8.342;2023-05-20T19:10:20;20.60;79.60
33825;DHT22;20127;48.962;8.342;2023-05-20T19:13:22;20.50;80.00
33825;DHT22;20127;48.962;8.342;2023-05-20T19:16:24;20.40;80.20